createdAt,value
2023-05-22T00:00:35.891Z,92.07
2023-05-22T00:01:35.800Z,91.91
2023-05-22T00:02:35.917Z,91.87
2023-05-22T00:03:35.921Z,92.02
2023-05-22T00:04:35.801Z,93.13
2023-05-22T00:05:35.878Z,93.48
2023-05-22T00:06:36.701Z,93.37
2023-05-22T00:07:35.745Z,93.68
2023-05-22T00:08:35.702Z,93.57
2023-05-22T00:09:35.891Z,93.68
2023-05-22T00:10:35.724Z,93.37
2023-05-22T00:11:35.779Z,92.77
2023-05-22T00:12:35.671Z,92.82
2023-05-22T00:13:35.785Z,92.42
2023-05-22T00:14:35.732Z,92.22
2023-05-22T00:15:35.782Z,91.71
2023-05-22T00:16:35.748Z,92.02
2023-05-22T00:17:35.724Z,92.02
2023-05-22T00:18:35.662Z,92.12
2023-05-22T00:19:35.772Z,91.71
2023-05-22T00:20:35.664Z,92.52
2023-05-22T00:21:35.662Z,92.12
2023-05-22T00:22:35.764Z,92.02
2023-05-22T00:23:35.623Z,91.82
2023-05-22T00:24:35.602Z,92.32
2023-05-22T00:25:35.604Z,92.26
2023-05-22T00:26:35.605Z,92.52
2023-05-22T00:27:35.685Z,92.62
2023-05-22T00:28:35.666Z,92.32
2023-05-22T00:29:35.609Z,92.42
2023-05-22T00:30:35.621Z,92.12
2023-05-22T00:31:35.601Z,92.12
2023-05-22T00:32:35.730Z,92.22
2023-05-22T00:33:35.621Z,91.71
2023-05-22T00:34:35.665Z,91.82
2023-05-22T00:35:35.589Z,92.12
2023-05-22T00:36:35.521Z,92.77
2023-05-22T00:37:35.549Z,92.82
2023-05-22T00:38:35.582Z,92.26
2023-05-22T00:39:35.596Z,92.52
2023-05-22T00:40:35.688Z,92.36
2023-05-22T00:41:35.496Z,92.62
2023-05-22T00:42:35.488Z,92.32
2023-05-22T00:43:35.585Z,91.41
2023-05-22T00:44:35.470Z,91.91
2023-05-22T00:45:35.547Z,91.51
2023-05-22T00:46:35.662Z,91.61
2023-05-22T00:47:35.482Z,91.71
2023-05-22T00:48:35.489Z,92.02
2023-05-22T00:49:35.594Z,92.02
2023-05-22T00:50:35.531Z,92.02
2023-05-22T00:51:35.558Z,92.26
2023-05-22T00:52:35.570Z,92.52
2023-05-22T00:53:35.453Z,92.22
2023-05-22T00:54:35.509Z,92.16
2023-05-22T00:55:35.491Z,92.57
2023-05-22T00:56:35.481Z,91.86
2023-05-22T00:57:35.486Z,92.26
2023-05-22T00:58:35.497Z,92.46
2023-05-22T00:59:35.418Z,92.77
2023-05-22T01:00:35.443Z,92.97
2023-05-22T01:01:35.418Z,92.77
2023-05-22T01:02:35.462Z,93.17
2023-05-22T01:03:35.605Z,92.97
2023-05-22T01:04:35.509Z,92.66
2023-05-22T01:05:35.340Z,92.57
2023-05-22T01:06:35.378Z,92.46
2023-05-22T01:07:35.423Z,92.97
2023-05-22T01:08:35.317Z,93.12
2023-05-22T01:09:35.464Z,92.77
2023-05-22T01:10:35.327Z,93.01
2023-05-22T01:11:35.325Z,93.37
2023-05-22T01:12:35.385Z,92.91
2023-05-22T01:13:35.291Z,92.81
2023-05-22T01:14:35.285Z,92.91
2023-05-22T01:15:35.279Z,92.57
2023-05-22T01:16:35.335Z,92.91
2023-05-22T01:17:35.358Z,92.61
2023-05-22T01:18:36.295Z,92.50
2023-05-22T01:19:35.464Z,93.41
2023-05-22T01:20:35.389Z,93.72
2023-05-22T01:21:35.326Z,93.32
2023-05-22T01:22:35.335Z,93.12
2023-05-22T01:23:35.298Z,92.81
2023-05-22T01:24:35.311Z,92.66
2023-05-22T01:25:35.285Z,92.71
2023-05-22T01:26:35.332Z,92.81
2023-05-22T01:27:35.459Z,92.30
2023-05-22T01:28:35.460Z,92.61
2023-05-22T01:29:35.354Z,93.01
2023-05-22T01:30:35.273Z,93.72
2023-05-22T01:31:35.440Z,93.56
2023-05-22T01:32:35.300Z,93.56
2023-05-22T01:33:36.310Z,93.76
2023-05-22T01:34:35.270Z,93.96
2023-05-22T01:35:35.166Z,94.07
2023-05-22T01:36:35.182Z,94.37
2023-05-22T01:37:35.247Z,93.76
2023-05-22T01:38:36.149Z,93.87
2023-05-22T01:39:35.206Z,94.47
2023-05-22T01:40:35.133Z,94.47
2023-05-22T01:41:35.168Z,93.96
2023-05-22T01:42:35.114Z,93.96
2023-05-22T01:43:35.138Z,94.31
2023-05-22T01:44:35.134Z,95.22
2023-05-22T01:45:35.132Z,95.22
2023-05-22T01:46:35.121Z,95.22
2023-05-22T01:47:35.101Z,94.87
2023-05-22T01:48:35.102Z,94.57
2023-05-22T01:49:35.099Z,94.72
2023-05-22T01:50:35.060Z,95.32
2023-05-22T01:51:35.071Z,94.67
2023-05-22T01:52:35.042Z,94.07
2023-05-22T01:53:35.062Z,93.46
2023-05-22T01:54:35.085Z,93.46
2023-05-22T01:55:35.075Z,93.66
2023-05-22T01:56:35.021Z,92.76
2023-05-22T01:57:35.024Z,92.61
2023-05-22T01:58:35.001Z,92.25
2023-05-22T01:59:35.037Z,93.16
2023-05-22T02:00:35.042Z,92.65
2023-05-22T02:01:35.036Z,92.76
2023-05-22T02:02:35.063Z,92.25
2023-05-22T02:03:35.052Z,91.70
2023-05-22T02:04:34.984Z,90.94
2023-05-22T02:05:34.997Z,91.24
2023-05-22T02:06:34.968Z,91.60
2023-05-22T02:07:34.945Z,91.39
2023-05-22T02:08:34.939Z,91.54
2023-05-22T02:09:34.967Z,91.54
2023-05-22T02:10:34.998Z,92.49
2023-05-22T02:11:34.922Z,92.40
2023-05-22T02:12:34.929Z,93.51
2023-05-22T02:13:34.911Z,93.85
2023-05-22T02:14:34.934Z,93.30
2023-05-22T02:15:34.971Z,93.65
2023-05-22T02:16:34.923Z,94.01
2023-05-22T02:17:34.901Z,93.71
2023-05-22T02:18:34.889Z,93.60
2023-05-22T02:19:34.932Z,93.40
2023-05-22T02:20:34.862Z,92.90
2023-05-22T02:21:34.916Z,92.60
2023-05-22T02:22:34.857Z,92.45
2023-05-22T02:23:34.846Z,92.09
2023-05-22T02:24:34.870Z,92.60
2023-05-22T02:25:34.833Z,93.15
2023-05-22T02:26:34.866Z,93.44
2023-05-22T02:27:34.848Z,93.30
2023-05-22T02:28:34.855Z,92.80
2023-05-22T02:29:34.841Z,92.60
2023-05-22T02:30:34.803Z,91.78
2023-05-22T02:31:34.825Z,91.14
2023-05-22T02:32:34.931Z,91.24
2023-05-22T02:33:34.799Z,91.32
2023-05-22T02:34:34.767Z,91.78
2023-05-22T02:35:34.771Z,91.83
2023-05-22T02:36:34.784Z,91.49
2023-05-22T02:37:34.795Z,91.49
2023-05-22T02:38:34.764Z,91.18
2023-05-22T02:39:34.754Z,90.47
2023-05-22T02:40:34.730Z,90.67
2023-05-22T02:41:34.733Z,90.73
2023-05-22T02:42:34.815Z,90.63
2023-05-22T02:43:34.749Z,89.92
2023-05-22T02:44:34.722Z,89.97
2023-05-22T02:45:34.707Z,90.41
2023-05-22T02:46:34.776Z,91.12
2023-05-22T02:47:34.738Z,91.32
2023-05-22T02:48:34.716Z,91.37
2023-05-22T02:49:34.839Z,91.63
2023-05-22T02:50:34.674Z,91.42
2023-05-22T02:51:34.668Z,90.72
2023-05-22T02:52:34.652Z,90.86
2023-05-22T02:53:34.701Z,91.61
2023-05-22T02:54:34.666Z,91.31
2023-05-22T02:55:34.627Z,92.36
2023-05-22T02:56:34.627Z,93.18
2023-05-22T02:57:34.632Z,93.78
2023-05-22T02:58:34.673Z,93.63
2023-05-22T02:59:34.625Z,93.63
2023-05-22T03:00:34.620Z,93.29
2023-05-22T03:01:35.633Z,93.33
2023-05-22T03:02:34.795Z,93.08
2023-05-22T03:03:34.859Z,92.22
2023-05-22T03:04:34.589Z,91.77
2023-05-22T03:05:34.617Z,91.47
2023-05-22T03:06:34.568Z,91.47
2023-05-22T03:07:34.596Z,91.16
2023-05-22T03:08:34.573Z,90.86
2023-05-22T03:09:34.599Z,90.96
2023-05-22T03:10:34.573Z,90.66
2023-05-22T03:11:34.533Z,90.41
2023-05-22T03:12:34.533Z,90.31
2023-05-22T03:13:34.532Z,90.16
2023-05-22T03:14:34.551Z,90.25
2023-05-22T03:15:34.511Z,90.76
2023-05-22T03:16:34.640Z,90.56
2023-05-22T03:17:34.543Z,90.05
2023-05-22T03:18:34.476Z,89.91
2023-05-22T03:19:34.573Z,89.81
2023-05-22T03:20:34.505Z,89.40
2023-05-22T03:21:34.579Z,89.30
2023-05-22T03:22:34.499Z,89.50
2023-05-22T03:23:34.459Z,88.70
2023-05-22T03:24:34.447Z,88.70
2023-05-22T03:25:34.479Z,89.00
2023-05-22T03:26:34.503Z,88.79
2023-05-22T03:27:34.462Z,88.79
2023-05-22T03:28:34.446Z,88.79
2023-05-22T03:29:34.414Z,89.00
2023-05-22T03:30:34.431Z,88.49
2023-05-22T03:31:34.417Z,89.14
2023-05-22T03:32:34.490Z,89.79
2023-05-22T03:33:34.411Z,89.65
2023-05-22T03:34:34.458Z,89.69
2023-05-22T03:35:34.383Z,90.20
2023-05-22T03:36:34.357Z,90.80
2023-05-22T03:37:34.399Z,90.70
2023-05-22T03:38:35.696Z,90.54
2023-05-22T03:39:34.926Z,91.05
2023-05-22T03:40:34.340Z,90.84
2023-05-22T03:41:35.203Z,90.95
2023-05-22T03:42:34.359Z,90.38
2023-05-22T03:43:35.194Z,91.03
2023-05-22T03:44:34.359Z,92.29
2023-05-22T03:45:34.388Z,93.41
2023-05-22T03:46:34.338Z,93.46
2023-05-22T03:47:34.328Z,93.42
2023-05-22T03:48:34.300Z,93.42
2023-05-22T03:49:34.282Z,92.91
2023-05-22T03:50:34.350Z,92.61
2023-05-22T03:51:34.262Z,92.51
2023-05-22T03:52:34.291Z,91.80
2023-05-22T03:53:34.303Z,91.86
2023-05-22T03:54:34.281Z,91.39
2023-05-22T03:55:34.244Z,91.50
2023-05-22T03:56:34.251Z,91.46
2023-05-22T03:57:34.242Z,91.35
2023-05-22T03:58:34.254Z,91.35
2023-05-22T03:59:34.231Z,90.75
2023-05-22T04:00:34.219Z,90.91
2023-05-22T04:01:34.213Z,90.24
2023-05-22T04:02:34.243Z,90.89
2023-05-22T04:03:34.268Z,92.80
2023-05-22T04:04:34.283Z,93.81
2023-05-22T04:05:34.296Z,94.26
2023-05-22T04:06:34.188Z,95.28
2023-05-22T04:07:34.190Z,94.98
2023-05-22T04:08:34.159Z,95.64
2023-05-22T04:09:34.207Z,94.07
2023-05-22T04:10:34.189Z,94.27
2023-05-22T04:11:34.159Z,94.18
2023-05-22T04:12:34.182Z,93.02
2023-05-22T04:13:34.155Z,92.65
2023-05-22T04:14:34.160Z,92.21
2023-05-22T04:15:34.164Z,92.35
2023-05-22T04:16:34.128Z,92.41
2023-05-22T04:17:34.207Z,92.51
2023-05-22T04:18:34.085Z,92.26
2023-05-22T04:19:34.179Z,91.46
2023-05-22T04:20:34.092Z,91.46
2023-05-22T04:21:34.246Z,91.35
2023-05-22T04:22:34.065Z,91.00
2023-05-22T04:23:34.056Z,90.70
2023-05-22T04:24:34.081Z,90.60
2023-05-22T04:25:34.083Z,90.30
2023-05-22T04:26:34.068Z,90.05
2023-05-22T04:27:34.021Z,89.28
2023-05-22T04:28:34.063Z,90.30
2023-05-22T04:29:34.039Z,90.64
2023-05-22T04:30:34.225Z,90.34
2023-05-22T04:31:34.030Z,91.25
2023-05-22T04:32:34.030Z,91.66
2023-05-22T04:33:33.986Z,91.20
2023-05-22T04:34:33.984Z,91.46
2023-05-22T04:35:33.999Z,91.20
2023-05-22T04:36:33.960Z,90.91
2023-05-22T04:37:33.963Z,90.80
2023-05-22T04:38:33.969Z,90.66
2023-05-22T04:39:33.951Z,90.25
2023-05-22T04:40:33.980Z,89.85
2023-05-22T04:41:33.957Z,89.61
2023-05-22T04:42:33.969Z,89.20
2023-05-22T04:43:33.917Z,88.19
2023-05-22T04:44:33.918Z,89.14
2023-05-22T04:45:33.908Z,89.91
2023-05-22T04:46:34.032Z,90.25
2023-05-22T04:47:33.940Z,90.31
2023-05-22T04:48:34.822Z,90.76
2023-05-22T04:49:33.971Z,90.86
2023-05-22T04:50:33.881Z,91.47
2023-05-22T04:51:33.853Z,91.37
2023-05-22T04:52:33.972Z,91.47
2023-05-22T04:53:33.850Z,91.27
2023-05-22T04:54:33.844Z,91.73
2023-05-22T04:55:33.873Z,91.27
2023-05-22T04:56:36.928Z,91.67
2023-05-22T04:57:34.857Z,91.02
2023-05-22T04:58:33.818Z,91.47
2023-05-22T04:59:33.838Z,91.32
2023-05-22T05:00:33.795Z,91.42
2023-05-22T05:01:33.812Z,91.22
2023-05-22T05:02:33.840Z,90.88
2023-05-22T05:03:33.819Z,90.47
2023-05-22T05:04:33.784Z,90.12
2023-05-22T05:05:33.758Z,89.62
2023-05-22T05:06:33.755Z,89.52
2023-05-22T05:07:33.746Z,88.97
2023-05-22T05:08:33.771Z,88.02
2023-05-22T05:09:33.742Z,87.92
2023-05-22T05:10:33.804Z,87.52
2023-05-22T05:11:33.746Z,86.57
2023-05-22T05:12:33.696Z,86.77
2023-05-22T05:13:33.752Z,86.77
2023-05-22T05:14:33.734Z,86.63
2023-05-22T05:15:33.724Z,85.98
2023-05-22T05:16:33.801Z,85.84
2023-05-22T05:17:33.710Z,85.34
2023-05-22T05:18:33.699Z,85.20
2023-05-22T05:19:35.490Z,83.95
2023-05-22T05:20:34.692Z,83.25
2023-05-22T05:21:33.749Z,82.50
2023-05-22T05:22:33.638Z,81.56
2023-05-22T05:23:33.642Z,82.26
2023-05-22T05:24:33.637Z,81.92
2023-05-22T05:25:33.640Z,80.98
2023-05-22T05:26:33.616Z,80.33
2023-05-22T05:27:33.622Z,79.23
2023-05-22T05:28:33.606Z,79.83
2023-05-22T05:29:33.625Z,80.24
2023-05-22T05:30:33.623Z,80.33
2023-05-22T05:31:33.655Z,78.89
2023-05-22T05:32:33.650Z,78.85
2023-05-22T05:33:33.594Z,78.55
2023-05-22T05:34:33.603Z,78.96
2023-05-22T05:35:33.583Z,79.16
2023-05-22T05:36:33.607Z,77.25
2023-05-22T05:37:33.581Z,78.02
2023-05-22T05:38:33.548Z,78.45
2023-05-22T05:39:33.557Z,78.66
2023-05-22T05:40:33.575Z,78.81
2023-05-22T05:41:33.531Z,77.81
2023-05-22T05:42:33.584Z,78.68
2023-05-22T05:43:33.560Z,76.67
2023-05-22T05:44:33.561Z,75.77
2023-05-22T05:45:33.506Z,78.28
2023-05-22T05:46:33.604Z,77.04
2023-05-22T05:47:33.548Z,77.54
2023-05-22T05:48:33.508Z,76.43
2023-05-22T05:49:35.681Z,75.87
2023-05-22T05:50:34.508Z,77.78
2023-05-22T05:51:33.476Z,75.81
2023-05-22T05:52:33.498Z,77.08
2023-05-22T05:53:33.446Z,77.58
2023-05-22T05:54:33.482Z,77.54
2023-05-22T05:55:34.630Z,76.34
2023-05-22T05:56:34.494Z,79.08
2023-05-22T05:57:33.596Z,79.08
2023-05-22T05:58:33.482Z,78.28
2023-05-22T05:59:33.436Z,77.67
2023-05-22T06:00:33.418Z,77.54
2023-05-22T06:01:33.416Z,78.50
2023-05-22T06:02:33.498Z,77.34
2023-05-22T06:03:33.551Z,76.50
2023-05-22T06:04:33.401Z,77.44
2023-05-22T06:05:33.583Z,76.74
2023-05-22T06:06:33.385Z,77.60
2023-05-22T06:07:33.380Z,78.41
2023-05-22T06:08:33.394Z,77.47
2023-05-22T06:09:33.385Z,76.67
2023-05-22T06:10:33.353Z,78.86
2023-05-22T06:11:33.405Z,77.26
2023-05-22T06:12:33.344Z,76.17
2023-05-22T06:13:33.349Z,77.91
2023-05-22T06:14:33.411Z,78.00
2023-05-22T06:15:33.361Z,77.91
2023-05-22T06:16:33.359Z,78.94
2023-05-22T06:17:33.328Z,78.98
2023-05-22T06:18:33.341Z,80.42
2023-05-22T06:19:33.336Z,80.18
2023-05-22T06:20:33.355Z,79.62
2023-05-22T06:21:33.372Z,80.42
2023-05-22T06:22:33.281Z,80.72
2023-05-22T06:23:33.278Z,80.22
2023-05-22T06:24:33.277Z,79.78
2023-05-22T06:25:33.245Z,82.29
2023-05-22T06:26:33.250Z,81.79
2023-05-22T06:27:33.255Z,80.48
2023-05-22T06:28:33.227Z,79.94
2023-05-22T06:29:33.289Z,79.34
2023-05-22T06:30:40.128Z,79.41
2023-05-22T06:31:35.218Z,78.50
2023-05-22T06:32:33.455Z,78.20
2023-05-22T06:33:33.243Z,77.36
2023-05-22T06:34:33.228Z,75.76
2023-05-22T06:35:33.194Z,77.63
2023-05-22T06:36:33.195Z,75.59
2023-05-22T06:37:33.229Z,75.89
2023-05-22T06:38:33.149Z,74.66
2023-05-22T06:39:33.168Z,74.66
2023-05-22T06:40:33.163Z,74.32
2023-05-22T06:41:33.164Z,72.76
2023-05-22T06:42:33.152Z,72.32
2023-05-22T06:43:33.141Z,69.89
2023-05-22T06:44:33.133Z,73.33
2023-05-22T06:45:33.180Z,72.26
2023-05-22T06:46:33.206Z,72.96
2023-05-22T06:47:33.129Z,73.63
2023-05-22T06:48:33.153Z,72.59
2023-05-22T06:49:33.093Z,71.42
2023-05-22T06:50:33.078Z,73.83
2023-05-22T06:51:33.079Z,72.69
2023-05-22T06:52:33.054Z,69.49
2023-05-22T06:53:33.092Z,70.92
2023-05-22T06:54:33.043Z,69.86
2023-05-22T06:55:34.112Z,73.63
2023-05-22T06:56:33.057Z,73.06
2023-05-22T06:57:33.144Z,73.86
2023-05-22T06:58:33.027Z,71.62
2023-05-22T06:59:33.014Z,72.79
2023-05-22T07:00:33.082Z,70.89
2023-05-22T07:01:33.104Z,72.26
2023-05-22T07:02:33.020Z,69.99
2023-05-22T07:03:32.979Z,70.73
2023-05-22T07:04:32.991Z,72.83
2023-05-22T07:05:33.016Z,73.29
2023-05-22T07:06:32.989Z,69.89
2023-05-22T07:07:32.972Z,73.66
2023-05-22T07:08:32.967Z,72.22
2023-05-22T07:09:32.972Z,69.39
2023-05-22T07:10:32.952Z,71.12
2023-05-22T07:11:33.024Z,68.03
2023-05-22T07:12:32.936Z,67.93
2023-05-22T07:13:32.935Z,68.96
2023-05-22T07:14:32.938Z,71.09
2023-05-22T07:15:32.921Z,67.26
2023-05-22T07:16:32.944Z,66.96
2023-05-22T07:17:32.972Z,67.26
2023-05-22T07:18:32.869Z,68.69
2023-05-22T07:19:32.918Z,69.29
2023-05-22T07:20:32.896Z,70.96
2023-05-22T07:21:32.956Z,71.12
2023-05-22T07:22:33.006Z,69.13
2023-05-22T07:23:32.836Z,69.32
2023-05-22T07:24:32.897Z,68.76
2023-05-22T07:25:32.857Z,69.82
2023-05-22T07:26:34.015Z,72.05
2023-05-22T07:27:32.818Z,69.26
2023-05-22T07:28:32.810Z,66.17
2023-05-22T07:29:32.825Z,69.46
2023-05-22T07:30:32.825Z,68.63
2023-05-22T07:31:32.858Z,68.70
2023-05-22T07:32:32.835Z,67.86
2023-05-22T07:33:32.780Z,68.93
2023-05-22T07:34:32.930Z,66.73
2023-05-22T07:35:32.799Z,68.06
2023-05-22T07:36:32.772Z,68.73
2023-05-22T07:37:32.754Z,66.93
2023-05-22T07:38:32.732Z,67.90
2023-05-22T07:39:33.746Z,67.26
2023-05-22T07:40:32.783Z,69.36
2023-05-22T07:41:32.757Z,68.86
2023-05-22T07:42:32.722Z,70.16
2023-05-22T07:43:32.703Z,68.49
2023-05-22T07:44:32.703Z,72.25
2023-05-22T07:45:32.688Z,71.32
2023-05-22T07:46:32.794Z,69.09
2023-05-22T07:47:32.762Z,68.40
2023-05-22T07:48:32.688Z,66.96
2023-05-22T07:49:32.664Z,66.96
2023-05-22T07:50:32.824Z,70.56
2023-05-22T07:51:32.670Z,69.53
2023-05-22T07:52:32.639Z,69.46
2023-05-22T07:53:32.680Z,68.86
2023-05-22T07:54:32.674Z,68.53
2023-05-22T07:55:32.618Z,67.97
2023-05-22T07:56:32.609Z,68.07
2023-05-22T07:57:32.647Z,66.05
2023-05-22T07:58:32.615Z,65.81
2023-05-22T07:59:32.597Z,66.94
2023-05-22T08:00:32.617Z,67.83
2023-05-22T08:01:32.602Z,67.90
2023-05-22T08:02:32.831Z,69.59
2023-05-22T08:03:32.805Z,65.71
2023-05-22T08:04:32.622Z,66.17
2023-05-22T08:05:32.547Z,69.06
2023-05-22T08:06:32.626Z,68.33
2023-05-22T08:07:32.545Z,66.44
2023-05-22T08:08:32.547Z,64.52
2023-05-22T08:09:32.509Z,66.51
2023-05-22T08:10:46.264Z,66.44
2023-05-22T08:11:34.517Z,67.63
2023-05-22T08:12:32.498Z,64.98
2023-05-22T08:13:32.533Z,67.50
2023-05-22T08:14:32.532Z,66.67
2023-05-22T08:15:32.479Z,65.68
2023-05-22T08:16:32.565Z,64.06
2023-05-22T08:17:32.515Z,63.92
2023-05-22T08:18:33.473Z,63.85
2023-05-22T08:19:32.635Z,65.54
2023-05-22T08:20:32.486Z,68.83
2023-05-22T08:21:32.451Z,68.70
2023-05-22T08:22:32.476Z,66.31
2023-05-22T08:23:32.425Z,66.77
2023-05-22T08:24:32.453Z,64.88
2023-05-22T08:25:32.430Z,64.28
2023-05-22T08:26:32.510Z,65.25
2023-05-22T08:27:32.439Z,64.18
2023-05-22T08:28:32.410Z,63.02
2023-05-22T08:29:32.432Z,63.39
2023-05-22T08:30:32.410Z,61.69
2023-05-22T08:31:32.479Z,60.69
2023-05-22T08:32:32.421Z,60.19
2023-05-22T08:33:32.392Z,60.06
2023-05-22T08:34:32.412Z,61.40
2023-05-22T08:35:32.423Z,64.15
2023-05-22T08:36:32.354Z,62.07
2023-05-22T08:37:32.369Z,61.37
2023-05-22T08:38:32.375Z,61.69
2023-05-22T08:39:32.341Z,58.98
2023-05-22T08:40:32.374Z,60.35
2023-05-22T08:41:32.368Z,62.40
2023-05-22T08:42:33.320Z,61.28
2023-05-22T08:43:32.340Z,60.09
2023-05-22T08:44:32.311Z,61.28
2023-05-22T08:45:32.278Z,60.09
2023-05-22T08:46:32.331Z,61.98
2023-05-22T08:47:32.314Z,62.07
2023-05-22T08:48:32.304Z,60.85
2023-05-22T08:49:32.257Z,62.15
2023-05-22T08:50:32.452Z,60.16
2023-05-22T08:51:32.249Z,60.42
2023-05-22T08:52:32.229Z,61.40
2023-05-22T08:53:32.261Z,60.40
2023-05-22T08:54:32.539Z,61.00
2023-05-22T08:55:32.249Z,59.98
2023-05-22T08:56:33.432Z,60.38
2023-05-22T08:57:32.238Z,61.64
2023-05-22T08:58:32.226Z,62.01
2023-05-22T08:59:32.218Z,62.50
2023-05-22T09:00:32.207Z,62.27
2023-05-22T09:01:32.229Z,60.39
2023-05-22T09:02:32.211Z,60.19
2023-05-22T09:03:32.259Z,61.68
2023-05-22T09:04:32.198Z,62.54
2023-05-22T09:05:32.177Z,63.40
2023-05-22T09:06:32.171Z,62.61
2023-05-22T09:07:32.167Z,57.90
2023-05-22T09:08:32.172Z,58.69
2023-05-22T09:09:32.193Z,59.01
2023-05-22T09:10:32.151Z,60.50
2023-05-22T09:11:32.243Z,63.36
2023-05-22T09:12:32.170Z,61.07
2023-05-22T09:13:32.134Z,62.13
2023-05-22T09:14:32.128Z,58.40
2023-05-22T09:15:32.097Z,60.16
2023-05-22T09:16:32.446Z,61.19
2023-05-22T09:17:32.139Z,57.03
2023-05-22T09:18:32.127Z,58.39
2023-05-22T09:19:32.135Z,60.44
2023-05-22T09:20:32.090Z,61.04
2023-05-22T09:21:32.102Z,61.10
2023-05-22T09:22:32.053Z,58.30
2023-05-22T09:23:32.090Z,60.35
2023-05-22T09:24:32.105Z,56.86
2023-05-22T09:25:32.051Z,58.15
2023-05-22T09:26:32.081Z,55.77
2023-05-22T09:27:32.101Z,54.96
2023-05-22T09:28:32.057Z,57.33
2023-05-22T09:29:32.075Z,59.60
2023-05-22T09:30:33.032Z,56.61
2023-05-22T09:31:32.093Z,57.01
2023-05-22T09:32:32.055Z,51.77
2023-05-22T09:33:31.989Z,58.54
2023-05-22T09:34:32.021Z,54.74
2023-05-22T09:35:31.982Z,56.99
2023-05-22T09:36:32.054Z,56.42
2023-05-22T09:37:31.976Z,56.05
2023-05-22T09:38:32.093Z,58.09
2023-05-22T09:39:32.034Z,59.01
2023-05-22T09:40:31.966Z,59.97
2023-05-22T09:41:31.934Z,60.99
2023-05-22T09:42:32.007Z,57.65
2023-05-22T09:43:31.934Z,57.24
2023-05-22T09:44:32.037Z,57.83
2023-05-22T09:45:31.937Z,60.16
2023-05-22T09:46:31.992Z,60.06
2023-05-22T09:47:33.173Z,62.51
2023-05-22T09:48:31.959Z,59.61
2023-05-22T09:49:31.934Z,57.79
2023-05-22T09:50:31.885Z,58.26
2023-05-22T09:51:31.897Z,55.96
2023-05-22T09:52:31.962Z,55.85
2023-05-22T09:53:31.862Z,57.14
2023-05-22T09:54:31.848Z,58.90
2023-05-22T09:55:31.883Z,58.57
2023-05-22T09:56:39.271Z,54.32
2023-05-22T09:57:33.875Z,55.80
2023-05-22T09:58:31.855Z,55.77
2023-05-22T09:59:31.808Z,57.16
2023-05-22T10:00:31.848Z,54.91
2023-05-22T10:01:31.861Z,54.54
2023-05-22T10:02:31.813Z,56.20
2023-05-22T10:03:31.827Z,55.18
2023-05-22T10:04:31.922Z,53.40
2023-05-22T10:05:31.801Z,54.98
2023-05-22T10:06:31.793Z,53.87
2023-05-22T10:07:31.780Z,52.48
2023-05-22T10:08:31.823Z,53.63
2023-05-22T10:09:31.827Z,55.16
2023-05-22T10:10:31.762Z,55.16
2023-05-22T10:11:31.804Z,56.23
2023-05-22T10:12:31.811Z,53.42
2023-05-22T10:13:31.780Z,54.49
2023-05-22T10:14:31.820Z,54.79
2023-05-22T10:15:31.796Z,54.79
2023-05-22T10:16:31.768Z,56.17
2023-05-22T10:17:31.826Z,54.98
2023-05-22T10:18:31.812Z,58.02
2023-05-22T10:19:31.823Z,56.91
2023-05-22T10:20:31.709Z,59.18
2023-05-22T10:21:31.717Z,55.52
2023-05-22T10:22:31.687Z,54.17
2023-05-22T10:23:31.686Z,53.95
2023-05-22T10:24:31.757Z,57.64
2023-05-22T10:25:31.685Z,56.11
2023-05-22T10:26:31.693Z,56.66
2023-05-22T10:27:32.036Z,57.98
2023-05-22T10:28:31.645Z,58.44
2023-05-22T10:29:31.645Z,56.85
2023-05-22T10:30:31.722Z,57.13
2023-05-22T10:31:31.675Z,56.18
2023-05-22T10:32:31.696Z,55.88
2023-05-22T10:33:31.697Z,58.98
2023-05-22T10:34:31.758Z,57.92
2023-05-22T10:35:31.597Z,57.25
2023-05-22T10:36:31.648Z,57.58
2023-05-22T10:37:31.598Z,57.85
2023-05-22T10:38:31.581Z,59.11
2023-05-22T10:39:31.604Z,59.67
2023-05-22T10:40:31.621Z,56.05
2023-05-22T10:41:31.734Z,54.94
2023-05-22T10:42:31.694Z,58.07
2023-05-22T10:43:31.632Z,56.79
2023-05-22T10:44:31.597Z,58.94
2023-05-22T10:45:31.715Z,54.96
2023-05-22T10:46:31.754Z,52.91
2023-05-22T10:47:31.564Z,54.44
2023-05-22T10:48:31.534Z,56.48
2023-05-22T10:49:31.514Z,57.07
2023-05-22T10:50:31.518Z,55.16
2023-05-22T10:51:31.525Z,55.04
2023-05-22T10:52:31.508Z,53.58
2023-05-22T10:53:31.541Z,53.67
2023-05-22T10:54:31.529Z,53.13
2023-05-22T10:55:31.498Z,55.97
2023-05-22T10:56:31.511Z,56.44
2023-05-22T10:57:31.484Z,52.51
2023-05-22T10:58:31.510Z,52.01
2023-05-22T10:59:31.486Z,51.00
2023-05-22T11:00:31.517Z,54.14
2023-05-22T11:01:31.541Z,50.88
2023-05-22T11:02:31.697Z,51.82
2023-05-22T11:03:31.519Z,54.54
2023-05-22T11:04:31.468Z,53.35
2023-05-22T11:05:31.421Z,52.46
2023-05-22T11:06:31.424Z,53.55
2023-05-22T11:07:31.429Z,52.39
2023-05-22T11:08:31.400Z,52.66
2023-05-22T11:09:31.456Z,55.87
2023-05-22T11:10:31.400Z,54.96
2023-05-22T11:11:31.393Z,56.51
2023-05-22T11:12:31.419Z,51.07
2023-05-22T11:13:31.412Z,52.84
2023-05-22T11:14:31.388Z,54.42
2023-05-22T11:15:31.359Z,54.69
2023-05-22T11:16:31.396Z,53.73
2023-05-22T11:17:31.416Z,54.13
2023-05-22T11:18:31.440Z,57.37
2023-05-22T11:19:31.403Z,53.97
2023-05-22T11:20:31.380Z,53.78
2023-05-22T11:21:31.343Z,53.58
2023-05-22T11:22:31.338Z,52.46
2023-05-22T11:23:31.318Z,55.01
2023-05-22T11:24:31.336Z,51.32
2023-05-22T11:25:31.299Z,53.40
2023-05-22T11:26:31.307Z,53.63
2023-05-22T11:27:31.314Z,49.37
2023-05-22T11:28:31.324Z,56.02
2023-05-22T11:29:31.295Z,53.23
2023-05-22T11:30:31.298Z,53.75
2023-05-22T11:31:31.345Z,51.20
2023-05-22T11:32:31.304Z,57.12
2023-05-22T11:33:31.286Z,51.37
2023-05-22T11:34:32.278Z,49.66
2023-05-22T11:35:31.284Z,53.95
2023-05-22T11:36:31.264Z,50.85
2023-05-22T11:37:31.271Z,50.46
2023-05-22T11:38:31.253Z,48.82
2023-05-22T11:39:31.224Z,50.93
2023-05-22T11:40:32.295Z,53.65
2023-05-22T11:41:33.276Z,49.27
2023-05-22T11:42:31.204Z,51.05
2023-05-22T11:43:31.215Z,51.35
2023-05-22T11:44:31.210Z,50.56
2023-05-22T11:45:31.218Z,52.51
2023-05-22T11:46:31.206Z,54.96
2023-05-22T11:47:31.204Z,52.06
2023-05-22T11:48:31.208Z,53.22
2023-05-22T11:49:31.163Z,50.73
2023-05-22T11:50:41.590Z,50.53
2023-05-22T11:51:33.207Z,52.61
2023-05-22T11:52:31.170Z,50.36
2023-05-22T11:53:31.152Z,51.35
2023-05-22T11:54:31.130Z,50.88
2023-05-22T11:55:31.150Z,50.98
2023-05-22T11:56:31.131Z,51.45
2023-05-22T11:57:31.139Z,56.37
2023-05-22T11:58:31.097Z,51.10
2023-05-22T11:59:31.093Z,50.19
2023-05-22T12:00:31.238Z,50.04
2023-05-22T12:01:31.130Z,52.91
2023-05-22T12:02:31.122Z,49.22
2023-05-22T12:03:31.286Z,52.09
2023-05-22T12:04:31.062Z,50.04
2023-05-22T12:05:31.149Z,51.75
2023-05-22T12:06:31.122Z,53.92
2023-05-22T12:07:31.060Z,52.83
2023-05-22T12:08:31.070Z,50.46
2023-05-22T12:09:31.029Z,53.72
2023-05-22T12:10:31.043Z,53.30
2023-05-22T12:11:31.042Z,52.19
2023-05-22T12:12:32.165Z,52.19
2023-05-22T12:13:31.084Z,51.97
2023-05-22T12:14:31.011Z,53.87
2023-05-22T12:15:31.027Z,49.54
2023-05-22T12:16:31.185Z,50.61
2023-05-22T12:17:31.005Z,51.52
2023-05-22T12:18:31.020Z,52.22
2023-05-22T12:19:31.138Z,51.84
2023-05-22T12:20:31.004Z,49.64
2023-05-22T12:21:30.953Z,51.13
2023-05-22T12:22:31.028Z,51.59
2023-05-22T12:23:30.942Z,49.52
2023-05-22T12:24:30.947Z,50.59
2023-05-22T12:25:30.954Z,49.87
2023-05-22T12:26:31.433Z,50.21
2023-05-22T12:27:33.056Z,50.61
2023-05-22T12:28:31.914Z,52.19
2023-05-22T12:29:31.158Z,51.97
2023-05-22T12:30:30.984Z,53.20
2023-05-22T12:31:31.172Z,51.75
2023-05-22T12:32:31.097Z,52.34
2023-05-22T12:33:30.882Z,53.40
2023-05-22T12:34:30.984Z,52.48
2023-05-22T12:35:31.040Z,53.28
2023-05-22T12:36:30.870Z,52.12
2023-05-22T12:37:30.879Z,52.09
2023-05-22T12:38:31.696Z,50.71
2023-05-22T12:39:30.860Z,51.57
2023-05-22T12:40:30.889Z,54.96
2023-05-22T12:41:30.870Z,50.61
2023-05-22T12:42:30.887Z,51.54
2023-05-22T12:43:30.828Z,53.20
2023-05-22T12:44:31.848Z,52.78
2023-05-22T12:45:30.855Z,52.78
2023-05-22T12:46:30.881Z,49.79
2023-05-22T12:47:30.876Z,49.77
2023-05-22T12:48:30.881Z,52.26
2023-05-22T12:49:30.809Z,52.24
2023-05-22T12:50:30.780Z,49.65
2023-05-22T12:51:30.806Z,48.27
2023-05-22T12:52:30.792Z,49.94